Hlavní strana
METAR-TAF:

METAR-TAF

Letiště :

Grafenwöhr, Německo

zeměpisná šířka: 49-42N, zeměpisná délka: 011-57E, výška: 415 m

Aktuální stav počasí

Zpráva byla vytvořena před 48 minutami, v 03:56 UTC
Bezvětří
Teplota -5°C
Vlhkost vzduchu 100%
Tlak 1024 hPa
Viditelnost 10 km a více
Jasno

METAR: ETIC 180356Z AUTO 00000KT 9999 CLR M05/M05 A3025 RMK AO2 SLP274 T10461054 FZRANO $

Čas: 05:44 (04:44 UTC)

Předpověď počasí

Zpráva byla vytvořena před 6 hodinami a 44 minutami, v 22:00 UTC
Předpověď platná od 17 v 22 UTC do 19 v 04 UTC
vítr z různých směrů 6 kt
Viditelnost 10 km a více
Oblačno až skoro zataženo ve výšce 2000 ft

TAF: ETIC 172200Z 1722/1904 VRB06KT 9999 BKN020 610209 QNH3017INS TX03/1813Z TNM02/1806Z

Stav a předpovědi počasí z více než 4 000 letišť (zprávy METAR a TAF).

Červené a žluté tečky na mapě představují dostupné meteorologické stanice.

Když kurzor umístíte na tečku, zobrazí se název stanice.

Pak kliknutím zobrazíte stav a předpověď počasí.

Chcete-li změnit mapu, kliknutím na zelené tlačítko se znaménkem +mapu přiblížíte, kliknutím na zelené tlačítko se znaménkem – mapu oddálíte a kliknutím na zelené šipky přejdete na sousední mapy.


METAR-TAF: